sensor_id;sensor_type;location;lat;lon;timestamp;P1;durP1;ratioP1;P2;durP2;ratioP2
69991;SDS011;57332;51.320;-0.580;2023-04-07T00:01:18;5.88;;;0.90;;
69991;SDS011;57332;51.320;-0.580;2023-04-07T00:03:44;1.83;;;0.95;;
69991;SDS011;57332;51.320;-0.580;2023-04-07T00:06:12;2.90;;;1.02;;
69991;SDS011;57332;51.320;-0.580;2023-04-07T00:08:39;2.15;;;0.90;;
69991;SDS011;57332;51.320;-0.580;2023-04-07T00:11:06;1.92;;;0.90;;
69991;SDS011;57332;51.320;-0.580;2023-04-07T00:13:34;6.32;;;1.10;;
69991;SDS011;57332;51.320;-0.580;2023-04-07T00:16:01;4.65;;;1.00;;
69991;SDS011;57332;51.320;-0.580;2023-04-07T00:18:28;3.10;;;1.30;;
69991;SDS011;57332;51.320;-0.580;2023-04-07T00:20:55;2.58;;;0.95;;
69991;SDS011;57332;51.320;-0.580;2023-04-07T00:23:21;2.35;;;0.85;;
69991;SDS011;57332;51.320;-0.580;2023-04-07T00:25:48;3.38;;;1.10;;
69991;SDS011;57332;51.320;-0.580;2023-04-07T00:28:15;2.53;;;1.08;;
69991;SDS011;57332;51.320;-0.580;2023-04-07T00:30:42;2.10;;;0.98;;
69991;SDS011;57332;51.320;-0.580;2023-04-07T00:33:09;1.98;;;0.90;;
69991;SDS011;57332;51.320;-0.580;2023-04-07T00:35:36;5.75;;;1.30;;
69991;SDS011;57332;51.320;-0.580;2023-04-07T00:38:03;3.45;;;1.25;;
69991;SDS011;57332;51.320;-0.580;2023-04-07T00:40:29;2.05;;;1.10;;
69991;SDS011;57332;51.320;-0.580;2023-04-07T00:42:56;3.08;;;1.05;;
69991;SDS011;57332;51.320;-0.580;2023-04-07T00:45:23;2.28;;;1.20;;
69991;SDS011;57332;51.320;-0.580;2023-04-07T00:47:51;1.67;;;0.95;;
69991;SDS011;57332;51.320;-0.580;2023-04-07T00:50:18;3.30;;;1.10;;
69991;SDS011;57332;51.320;-0.580;2023-04-07T00:52:44;3.67;;;1.10;;
69991;SDS011;57332;51.320;-0.580;2023-04-07T00:55:11;4.18;;;1.10;;
69991;SDS011;57332;51.320;-0.580;2023-04-07T00:57:38;4.35;;;1.10;;
69991;SDS011;57332;51.320;-0.580;2023-04-07T01:00:05;2.90;;;1.15;;
69991;SDS011;57332;51.320;-0.580;2023-04-07T01:02:35;2.72;;;0.88;;
69991;SDS011;57332;51.320;-0.580;2023-04-07T01:05:06;4.93;;;1.20;;
69991;SDS011;57332;51.320;-0.580;2023-04-07T01:07:39;4.43;;;1.42;;
69991;SDS011;57332;51.320;-0.580;2023-04-07T01:10:11;2.50;;;0.85;;
69991;SDS011;57332;51.320;-0.580;2023-04-07T01:12:53;2.75;;;1.02;;
69991;SDS011;57332;51.320;-0.580;2023-04-07T01:15:22;3.30;;;1.13;;
69991;SDS011;57332;51.320;-0.580;2023-04-07T01:17:52;3.70;;;1.08;;
69991;SDS011;57332;51.320;-0.580;2023-04-07T01:20:21;2.85;;;1.08;;
69991;SDS011;57332;51.320;-0.580;2023-04-07T01:22:50;2.80;;;1.02;;
69991;SDS011;57332;51.320;-0.580;2023-04-07T01:30:41;2.67;;;0.90;;
69991;SDS011;57332;51.320;-0.580;2023-04-07T01:33:09;2.22;;;1.00;;
69991;SDS011;57332;51.320;-0.580;2023-04-07T01:35:37;4.30;;;0.90;;
69991;SDS011;57332;51.320;-0.580;2023-04-07T01:38:04;2.65;;;1.00;;
69991;SDS011;57332;51.320;-0.580;2023-04-07T01:40:32;2.95;;;1.00;;
69991;SDS011;57332;51.320;-0.580;2023-04-07T01:43:00;3.42;;;1.00;;
69991;SDS011;57332;51.320;-0.580;2023-04-07T01:45:28;3.22;;;0.93;;
69991;SDS011;57332;51.320;-0.580;2023-04-07T01:47:56;3.00;;;1.02;;
69991;SDS011;57332;51.320;-0.580;2023-04-07T01:50:23;2.97;;;0.93;;
69991;SDS011;57332;51.320;-0.580;2023-04-07T01:52:51;2.60;;;0.82;;
69991;SDS011;57332;51.320;-0.580;2023-04-07T01:55:18;5.07;;;1.00;;
69991;SDS011;57332;51.320;-0.580;2023-04-07T01:57:45;4.00;;;1.00;;
69991;SDS011;57332;51.320;-0.580;2023-04-07T02:00:12;3.90;;;1.00;;
69991;SDS011;57332;51.320;-0.580;2023-04-07T02:02:40;4.80;;;1.00;;
69991;SDS011;57332;51.320;-0.580;2023-04-07T02:05:08;3.53;;;1.00;;
69991;SDS011;57332;51.320;-0.580;2023-04-07T02:07:39;2.30;;;0.80;;
69991;SDS011;57332;51.320;-0.580;2023-04-07T02:10:09;3.08;;;0.93;;
69991;SDS011;57332;51.320;-0.580;2023-04-07T02:12:36;2.70;;;1.10;;
69991;SDS011;57332;51.320;-0.580;2023-04-07T02:15:04;3.63;;;1.30;;
69991;SDS011;57332;51.320;-0.580;2023-04-07T02:17:32;4.40;;;1.08;;
69991;SDS011;57332;51.320;-0.580;2023-04-07T02:20:00;3.38;;;1.00;;
69991;SDS011;57332;51.320;-0.580;2023-04-07T02:22:28;4.18;;;0.90;;
69991;SDS011;57332;51.320;-0.580;2023-04-07T02:24:55;2.95;;;0.95;;
69991;SDS011;57332;51.320;-0.580;2023-04-07T02:27:22;4.38;;;1.45;;
69991;SDS011;57332;51.320;-0.580;2023-04-07T02:29:49;2.78;;;0.90;;
69991;SDS011;57332;51.320;-0.580;2023-04-07T02:32:16;4.70;;;1.10;;
69991;SDS011;57332;51.320;-0.580;2023-04-07T02:34:43;4.78;;;1.27;;
69991;SDS011;57332;51.320;-0.580;2023-04-07T02:37:10;2.55;;;1.00;;
69991;SDS011;57332;51.320;-0.580;2023-04-07T02:39:37;3.55;;;0.95;;
69991;SDS011;57332;51.320;-0.580;2023-04-07T02:42:04;2.65;;;0.90;;
69991;SDS011;57332;51.320;-0.580;2023-04-07T02:44:31;4.50;;;1.38;;
69991;SDS011;57332;51.320;-0.580;2023-04-07T02:46:58;2.25;;;1.00;;
69991;SDS011;57332;51.320;-0.580;2023-04-07T02:49:24;2.95;;;0.93;;
69991;SDS011;57332;51.320;-0.580;2023-04-07T02:51:51;4.15;;;1.02;;
69991;SDS011;57332;51.320;-0.580;2023-04-07T02:54:18;3.85;;;1.00;;
69991;SDS011;57332;51.320;-0.580;2023-04-07T02:56:45;3.25;;;0.90;;
69991;SDS011;57332;51.320;-0.580;2023-04-07T02:59:12;1.90;;;1.00;;
69991;SDS011;57332;51.320;-0.580;2023-04-07T03:01:39;1.73;;;0.80;;
69991;SDS011;57332;51.320;-0.580;2023-04-07T03:04:06;3.17;;;0.80;;
69991;SDS011;57332;51.320;-0.580;2023-04-07T03:06:33;4.50;;;0.90;;
69991;SDS011;57332;51.320;-0.580;2023-04-07T03:09:00;2.47;;;0.90;;
69991;SDS011;57332;51.320;-0.580;2023-04-07T03:11:27;3.60;;;0.95;;
69991;SDS011;57332;51.320;-0.580;2023-04-07T03:13:54;4.97;;;1.17;;
69991;SDS011;57332;51.320;-0.580;2023-04-07T03:16:21;3.40;;;1.42;;
69991;SDS011;57332;51.320;-0.580;2023-04-07T03:18:48;3.67;;;0.90;;
69991;SDS011;57332;51.320;-0.580;2023-04-07T03:21:15;2.45;;;1.00;;
69991;SDS011;57332;51.320;-0.580;2023-04-07T03:23:42;3.30;;;0.98;;
69991;SDS011;57332;51.320;-0.580;2023-04-07T03:26:09;2.80;;;0.98;;
69991;SDS011;57332;51.320;-0.580;2023-04-07T03:28:36;4.00;;;1.13;;
69991;SDS011;57332;51.320;-0.580;2023-04-07T03:31:03;3.17;;;1.10;;
69991;SDS011;57332;51.320;-0.580;2023-04-07T03:33:30;3.78;;;1.08;;
69991;SDS011;57332;51.320;-0.580;2023-04-07T03:35:57;1.85;;;0.82;;
69991;SDS011;57332;51.320;-0.580;2023-04-07T03:38:24;1.60;;;0.82;;
69991;SDS011;57332;51.320;-0.580;2023-04-07T03:40:51;3.85;;;0.80;;
69991;SDS011;57332;51.320;-0.580;2023-04-07T03:43:18;1.98;;;0.88;;
69991;SDS011;57332;51.320;-0.580;2023-04-07T03:45:45;5.63;;;1.30;;
69991;SDS011;57332;51.320;-0.580;2023-04-07T03:48:12;2.05;;;0.75;;
69991;SDS011;57332;51.320;-0.580;2023-04-07T03:50:39;3.83;;;1.10;;
69991;SDS011;57332;51.320;-0.580;2023-04-07T03:53:07;5.05;;;1.10;;
69991;SDS011;57332;51.320;-0.580;2023-04-07T03:55:34;4.35;;;1.15;;
69991;SDS011;57332;51.320;-0.580;2023-04-07T03:58:01;2.78;;;1.00;;
69991;SDS011;57332;51.320;-0.580;2023-04-07T04:00:28;3.17;;;0.77;;
69991;SDS011;57332;51.320;-0.580;2023-04-07T04:02:57;2.75;;;1.13;;
69991;SDS011;57332;51.320;-0.580;2023-04-07T04:05:24;2.10;;;0.80;;
69991;SDS011;57332;51.320;-0.580;2023-04-07T04:07:51;3.30;;;0.85;;
69991;SDS011;57332;51.320;-0.580;2023-04-07T04:10:18;3.35;;;1.30;;
69991;SDS011;57332;51.320;-0.580;2023-04-07T04:12:46;3.40;;;1.02;;
69991;SDS011;57332;51.320;-0.580;2023-04-07T04:15:13;2.88;;;1.00;;
69991;SDS011;57332;51.320;-0.580;2023-04-07T04:17:40;4.50;;;1.10;;
69991;SDS011;57332;51.320;-0.580;2023-04-07T04:20:07;1.83;;;1.13;;
69991;SDS011;57332;51.320;-0.580;2023-04-07T04:22:34;2.72;;;1.10;;
69991;SDS011;57332;51.320;-0.580;2023-04-07T04:25:01;5.85;;;1.08;;
69991;SDS011;57332;51.320;-0.580;2023-04-07T04:27:28;3.45;;;1.00;;
69991;SDS011;57332;51.320;-0.580;2023-04-07T04:29:55;3.35;;;0.70;;
69991;SDS011;57332;51.320;-0.580;2023-04-07T04:32:22;2.75;;;1.02;;
69991;SDS011;57332;51.320;-0.580;2023-04-07T04:34:49;2.17;;;1.02;;
69991;SDS011;57332;51.320;-0.580;2023-04-07T04:37:16;4.35;;;1.02;;
69991;SDS011;57332;51.320;-0.580;2023-04-07T04:39:43;3.38;;;0.95;;
69991;SDS011;57332;51.320;-0.580;2023-04-07T04:42:09;2.38;;;1.00;;
69991;SDS011;57332;51.320;-0.580;2023-04-07T04:44:36;2.80;;;0.95;;
69991;SDS011;57332;51.320;-0.580;2023-04-07T04:47:03;5.07;;;1.23;;
69991;SDS011;57332;51.320;-0.580;2023-04-07T04:49:30;2.17;;;0.90;;
69991;SDS011;57332;51.320;-0.580;2023-04-07T04:51:57;2.15;;;0.98;;
69991;SDS011;57332;51.320;-0.580;2023-04-07T04:54:24;3.72;;;0.95;;
69991;SDS011;57332;51.320;-0.580;2023-04-07T04:56:51;3.50;;;0.88;;
69991;SDS011;57332;51.320;-0.580;2023-04-07T04:59:18;5.53;;;1.10;;
69991;SDS011;57332;51.320;-0.580;2023-04-07T05:01:44;2.28;;;0.95;;
69991;SDS011;57332;51.320;-0.580;2023-04-07T05:04:12;4.38;;;1.10;;
69991;SDS011;57332;51.320;-0.580;2023-04-07T05:06:39;3.55;;;1.10;;
69991;SDS011;57332;51.320;-0.580;2023-04-07T05:09:06;2.47;;;0.88;;
69991;SDS011;57332;51.320;-0.580;2023-04-07T05:11:33;2.63;;;1.02;;
69991;SDS011;57332;51.320;-0.580;2023-04-07T05:14:00;2.67;;;1.10;;
69991;SDS011;57332;51.320;-0.580;2023-04-07T05:16:27;3.92;;;1.13;;
69991;SDS011;57332;51.320;-0.580;2023-04-07T05:18:53;2.47;;;1.00;;
69991;SDS011;57332;51.320;-0.580;2023-04-07T05:21:20;3.35;;;1.05;;
69991;SDS011;57332;51.320;-0.580;2023-04-07T05:23:47;3.33;;;1.15;;
69991;SDS011;57332;51.320;-0.580;2023-04-07T05:26:15;2.03;;;0.95;;
69991;SDS011;57332;51.320;-0.580;2023-04-07T05:28:42;4.90;;;1.13;;
69991;SDS011;57332;51.320;-0.580;2023-04-07T05:31:08;4.03;;;1.00;;
69991;SDS011;57332;51.320;-0.580;2023-04-07T05:33:36;2.95;;;1.08;;
69991;SDS011;57332;51.320;-0.580;2023-04-07T05:36:03;3.60;;;1.20;;
69991;SDS011;57332;51.320;-0.580;2023-04-07T05:38:30;2.95;;;1.00;;
69991;SDS011;57332;51.320;-0.580;2023-04-07T05:40:56;2.10;;;1.00;;
69991;SDS011;57332;51.320;-0.580;2023-04-07T05:43:23;2.83;;;1.15;;
69991;SDS011;57332;51.320;-0.580;2023-04-07T05:45:50;4.32;;;1.20;;
69991;SDS011;57332;51.320;-0.580;2023-04-07T05:48:17;3.50;;;1.00;;
69991;SDS011;57332;51.320;-0.580;2023-04-07T05:50:44;4.15;;;1.30;;
69991;SDS011;57332;51.320;-0.580;2023-04-07T05:53:11;4.13;;;1.25;;
69991;SDS011;57332;51.320;-0.580;2023-04-07T05:55:40;4.82;;;1.10;;
69991;SDS011;57332;51.320;-0.580;2023-04-07T05:58:07;2.75;;;1.40;;
69991;SDS011;57332;51.320;-0.580;2023-04-07T06:00:34;5.65;;;1.30;;
69991;SDS011;57332;51.320;-0.580;2023-04-07T06:03:01;6.25;;;1.17;;
69991;SDS011;57332;51.320;-0.580;2023-04-07T06:05:29;3.67;;;1.20;;
69991;SDS011;57332;51.320;-0.580;2023-04-07T06:07:56;5.10;;;1.15;;
69991;SDS011;57332;51.320;-0.580;2023-04-07T06:10:24;3.20;;;1.30;;
69991;SDS011;57332;51.320;-0.580;2023-04-07T06:12:51;4.97;;;1.52;;
69991;SDS011;57332;51.320;-0.580;2023-04-07T06:15:17;4.53;;;1.50;;
69991;SDS011;57332;51.320;-0.580;2023-04-07T06:17:44;3.55;;;1.40;;
69991;SDS011;57332;51.320;-0.580;2023-04-07T06:20:11;4.05;;;1.33;;
69991;SDS011;57332;51.320;-0.580;2023-04-07T06:22:38;4.05;;;1.40;;
69991;SDS011;57332;51.320;-0.580;2023-04-07T06:25:05;5.97;;;1.45;;
69991;SDS011;57332;51.320;-0.580;2023-04-07T06:27:32;4.70;;;1.40;;
69991;SDS011;57332;51.320;-0.580;2023-04-07T06:29:59;5.72;;;1.45;;
69991;SDS011;57332;51.320;-0.580;2023-04-07T06:32:26;6.53;;;1.40;;
69991;SDS011;57332;51.320;-0.580;2023-04-07T06:34:53;3.53;;;1.50;;
69991;SDS011;57332;51.320;-0.580;2023-04-07T06:37:20;3.88;;;1.90;;
69991;SDS011;57332;51.320;-0.580;2023-04-07T06:39:50;4.53;;;1.30;;
69991;SDS011;57332;51.320;-0.580;2023-04-07T06:42:17;3.83;;;1.20;;
69991;SDS011;57332;51.320;-0.580;2023-04-07T06:44:44;3.45;;;1.45;;
69991;SDS011;57332;51.320;-0.580;2023-04-07T06:47:10;9.48;;;1.33;;
69991;SDS011;57332;51.320;-0.580;2023-04-07T06:49:37;4.85;;;1.45;;
69991;SDS011;57332;51.320;-0.580;2023-04-07T06:52:04;3.75;;;1.30;;
69991;SDS011;57332;51.320;-0.580;2023-04-07T06:54:31;5.47;;;1.40;;
69991;SDS011;57332;51.320;-0.580;2023-04-07T06:56:58;5.97;;;1.20;;
69991;SDS011;57332;51.320;-0.580;2023-04-07T06:59:27;4.32;;;1.50;;
69991;SDS011;57332;51.320;-0.580;2023-04-07T07:01:54;6.78;;;1.80;;
69991;SDS011;57332;51.320;-0.580;2023-04-07T07:04:21;5.93;;;1.50;;
69991;SDS011;57332;51.320;-0.580;2023-04-07T07:06:48;4.45;;;1.23;;
69991;SDS011;57332;51.320;-0.580;2023-04-07T07:09:14;4.22;;;1.48;;
69991;SDS011;57332;51.320;-0.580;2023-04-07T07:11:41;4.80;;;1.52;;
69991;SDS011;57332;51.320;-0.580;2023-04-07T07:14:08;4.63;;;1.50;;
69991;SDS011;57332;51.320;-0.580;2023-04-07T07:16:35;4.45;;;1.30;;
69991;SDS011;57332;51.320;-0.580;2023-04-07T07:19:02;5.55;;;1.35;;
69991;SDS011;57332;51.320;-0.580;2023-04-07T07:21:29;3.78;;;1.48;;
69991;SDS011;57332;51.320;-0.580;2023-04-07T07:23:57;6.00;;;1.70;;
69991;SDS011;57332;51.320;-0.580;2023-04-07T07:26:24;5.78;;;1.30;;
69991;SDS011;57332;51.320;-0.580;2023-04-07T07:28:51;3.50;;;1.38;;
69991;SDS011;57332;51.320;-0.580;2023-04-07T07:31:18;4.38;;;1.08;;
69991;SDS011;57332;51.320;-0.580;2023-04-07T07:33:45;5.47;;;1.33;;
69991;SDS011;57332;51.320;-0.580;2023-04-07T07:36:14;4.47;;;1.35;;
69991;SDS011;57332;51.320;-0.580;2023-04-07T07:38:41;3.97;;;2.35;;
69991;SDS011;57332;51.320;-0.580;2023-04-07T07:41:08;4.15;;;1.30;;
69991;SDS011;57332;51.320;-0.580;2023-04-07T07:43:35;4.65;;;1.30;;
69991;SDS011;57332;51.320;-0.580;2023-04-07T07:46:03;2.63;;;1.33;;
69991;SDS011;57332;51.320;-0.580;2023-04-07T07:48:30;7.03;;;1.63;;
69991;SDS011;57332;51.320;-0.580;2023-04-07T07:50:57;3.83;;;1.33;;
69991;SDS011;57332;51.320;-0.580;2023-04-07T07:53:24;4.50;;;1.20;;
69991;SDS011;57332;51.320;-0.580;2023-04-07T07:55:50;4.80;;;1.10;;
69991;SDS011;57332;51.320;-0.580;2023-04-07T07:58:17;4.93;;;1.23;;
69991;SDS011;57332;51.320;-0.580;2023-04-07T08:00:44;3.42;;;1.30;;
69991;SDS011;57332;51.320;-0.580;2023-04-07T08:03:11;5.47;;;1.10;;
69991;SDS011;57332;51.320;-0.580;2023-04-07T08:05:38;4.30;;;1.27;;
69991;SDS011;57332;51.320;-0.580;2023-04-07T08:08:05;4.30;;;0.93;;
69991;SDS011;57332;51.320;-0.580;2023-04-07T08:10:32;6.85;;;1.05;;
69991;SDS011;57332;51.320;-0.580;2023-04-07T08:12:59;7.20;;;1.40;;
69991;SDS011;57332;51.320;-0.580;2023-04-07T08:15:26;3.53;;;1.05;;
69991;SDS011;57332;51.320;-0.580;2023-04-07T08:17:53;2.70;;;1.02;;
69991;SDS011;57332;51.320;-0.580;2023-04-07T08:20:22;3.90;;;1.10;;
69991;SDS011;57332;51.320;-0.580;2023-04-07T08:22:49;3.63;;;1.13;;
69991;SDS011;57332;51.320;-0.580;2023-04-07T08:25:16;2.67;;;1.00;;
69991;SDS011;57332;51.320;-0.580;2023-04-07T08:27:43;2.85;;;0.90;;
69991;SDS011;57332;51.320;-0.580;2023-04-07T08:30:10;3.65;;;1.05;;
69991;SDS011;57332;51.320;-0.580;2023-04-07T08:32:38;5.80;;;1.10;;
69991;SDS011;57332;51.320;-0.580;2023-04-07T08:35:06;5.25;;;1.20;;
69991;SDS011;57332;51.320;-0.580;2023-04-07T08:37:33;2.17;;;0.80;;
69991;SDS011;57332;51.320;-0.580;2023-04-07T08:40:00;2.20;;;1.13;;
69991;SDS011;57332;51.320;-0.580;2023-04-07T08:42:28;3.22;;;1.10;;
69991;SDS011;57332;51.320;-0.580;2023-04-07T08:44:56;2.42;;;0.82;;
69991;SDS011;57332;51.320;-0.580;2023-04-07T08:47:26;1.70;;;0.73;;
69991;SDS011;57332;51.320;-0.580;2023-04-07T08:49:54;5.10;;;1.20;;
69991;SDS011;57332;51.320;-0.580;2023-04-07T08:52:22;4.18;;;1.00;;
69991;SDS011;57332;51.320;-0.580;2023-04-07T08:54:51;2.25;;;1.02;;
69991;SDS011;57332;51.320;-0.580;2023-04-07T08:57:18;3.80;;;1.17;;
69991;SDS011;57332;51.320;-0.580;2023-04-07T08:59:46;2.63;;;1.23;;
69991;SDS011;57332;51.320;-0.580;2023-04-07T09:02:14;4.32;;;1.13;;
69991;SDS011;57332;51.320;-0.580;2023-04-07T09:04:42;2.75;;;1.30;;
69991;SDS011;57332;51.320;-0.580;2023-04-07T09:07:09;4.15;;;1.00;;
69991;SDS011;57332;51.320;-0.580;2023-04-07T09:09:36;3.78;;;0.82;;
69991;SDS011;57332;51.320;-0.580;2023-04-07T09:12:03;4.22;;;1.00;;
69991;SDS011;57332;51.320;-0.580;2023-04-07T09:14:30;4.38;;;1.00;;
69991;SDS011;57332;51.320;-0.580;2023-04-07T09:16:57;4.75;;;1.10;;
69991;SDS011;57332;51.320;-0.580;2023-04-07T09:19:26;2.42;;;1.10;;
69991;SDS011;57332;51.320;-0.580;2023-04-07T09:21:52;3.47;;;1.10;;
69991;SDS011;57332;51.320;-0.580;2023-04-07T09:24:21;5.28;;;1.30;;
69991;SDS011;57332;51.320;-0.580;2023-04-07T09:26:48;4.38;;;1.30;;
69991;SDS011;57332;51.320;-0.580;2023-04-07T09:29:19;2.28;;;0.90;;
69991;SDS011;57332;51.320;-0.580;2023-04-07T09:31:47;5.18;;;1.50;;
69991;SDS011;57332;51.320;-0.580;2023-04-07T09:34:29;4.15;;;1.52;;
69991;SDS011;57332;51.320;-0.580;2023-04-07T09:36:56;3.28;;;1.40;;
69991;SDS011;57332;51.320;-0.580;2023-04-07T09:39:23;5.57;;;1.70;;
69991;SDS011;57332;51.320;-0.580;2023-04-07T09:41:50;6.38;;;2.20;;
69991;SDS011;57332;51.320;-0.580;2023-04-07T09:44:21;6.68;;;2.10;;
69991;SDS011;57332;51.320;-0.580;2023-04-07T09:46:55;5.15;;;1.88;;
69991;SDS011;57332;51.320;-0.580;2023-04-07T09:49:23;5.70;;;1.80;;
69991;SDS011;57332;51.320;-0.580;2023-04-07T09:54:39;4.72;;;1.48;;
69991;SDS011;57332;51.320;-0.580;2023-04-07T09:57:07;3.42;;;1.30;;
69991;SDS011;57332;51.320;-0.580;2023-04-07T09:59:35;5.40;;;1.70;;
69991;SDS011;57332;51.320;-0.580;2023-04-07T10:02:02;3.55;;;1.50;;
69991;SDS011;57332;51.320;-0.580;2023-04-07T10:04:29;3.13;;;1.45;;
69991;SDS011;57332;51.320;-0.580;2023-04-07T10:06:57;2.35;;;1.25;;
69991;SDS011;57332;51.320;-0.580;2023-04-07T10:09:27;3.78;;;1.40;;
69991;SDS011;57332;51.320;-0.580;2023-04-07T10:11:55;3.95;;;1.40;;
69991;SDS011;57332;51.320;-0.580;2023-04-07T10:14:27;5.97;;;1.40;;
69991;SDS011;57332;51.320;-0.580;2023-04-07T10:16:54;3.78;;;1.27;;
69991;SDS011;57332;51.320;-0.580;2023-04-07T10:19:21;3.20;;;1.10;;
69991;SDS011;57332;51.320;-0.580;2023-04-07T10:21:50;4.15;;;1.40;;
69991;SDS011;57332;51.320;-0.580;2023-04-07T10:26:46;3.00;;;1.35;;
69991;SDS011;57332;51.320;-0.580;2023-04-07T10:29:16;4.38;;;1.23;;
69991;SDS011;57332;51.320;-0.580;2023-04-07T10:31:43;1.77;;;1.02;;
69991;SDS011;57332;51.320;-0.580;2023-04-07T10:34:11;3.28;;;1.20;;
69991;SDS011;57332;51.320;-0.580;2023-04-07T10:39:23;3.88;;;1.27;;
69991;SDS011;57332;51.320;-0.580;2023-04-07T10:41:50;2.55;;;0.80;;
69991;SDS011;57332;51.320;-0.580;2023-04-07T10:47:04;2.88;;;0.90;;
69991;SDS011;57332;51.320;-0.580;2023-04-07T10:49:32;3.28;;;1.00;;
69991;SDS011;57332;51.320;-0.580;2023-04-07T10:54:40;1.88;;;0.82;;
69991;SDS011;57332;51.320;-0.580;2023-04-07T10:57:10;2.70;;;0.70;;
69991;SDS011;57332;51.320;-0.580;2023-04-07T10:59:39;2.65;;;0.85;;
69991;SDS011;57332;51.320;-0.580;2023-04-07T11:04:40;2.40;;;0.73;;
69991;SDS011;57332;51.320;-0.580;2023-04-07T11:07:08;2.20;;;1.00;;
69991;SDS011;57332;51.320;-0.580;2023-04-07T11:09:35;3.28;;;0.90;;
69991;SDS011;57332;51.320;-0.580;2023-04-07T11:12:02;4.55;;;0.90;;
69991;SDS011;57332;51.320;-0.580;2023-04-07T11:14:29;4.60;;;0.88;;
69991;SDS011;57332;51.320;-0.580;2023-04-07T11:16:57;2.67;;;0.90;;
69991;SDS011;57332;51.320;-0.580;2023-04-07T11:19:24;2.53;;;0.73;;
69991;SDS011;57332;51.320;-0.580;2023-04-07T11:22:12;1.15;;;0.80;;
69991;SDS011;57332;51.320;-0.580;2023-04-07T11:24:55;3.00;;;0.70;;
69991;SDS011;57332;51.320;-0.580;2023-04-07T11:27:21;1.65;;;0.80;;
69991;SDS011;57332;51.320;-0.580;2023-04-07T11:29:48;1.98;;;0.70;;
69991;SDS011;57332;51.320;-0.580;2023-04-07T11:32:21;2.25;;;0.50;;
69991;SDS011;57332;51.320;-0.580;2023-04-07T11:34:51;1.83;;;0.55;;
69991;SDS011;57332;51.320;-0.580;2023-04-07T11:37:18;2.00;;;0.70;;
69991;SDS011;57332;51.320;-0.580;2023-04-07T11:39:55;0.88;;;0.57;;
69991;SDS011;57332;51.320;-0.580;2023-04-07T11:42:32;0.93;;;0.30;;
69991;SDS011;57332;51.320;-0.580;2023-04-07T11:44:59;1.15;;;0.40;;
69991;SDS011;57332;51.320;-0.580;2023-04-07T11:47:37;2.35;;;0.40;;
69991;SDS011;57332;51.320;-0.580;2023-04-07T11:50:04;1.00;;;0.40;;
69991;SDS011;57332;51.320;-0.580;2023-04-07T11:52:50;0.95;;;0.47;;
69991;SDS011;57332;51.320;-0.580;2023-04-07T11:55:20;0.50;;;0.30;;
69991;SDS011;57332;51.320;-0.580;2023-04-07T11:57:48;1.80;;;0.40;;
69991;SDS011;57332;51.320;-0.580;2023-04-07T12:00:17;1.02;;;0.50;;
69991;SDS011;57332;51.320;-0.580;2023-04-07T12:02:45;2.13;;;0.40;;
69991;SDS011;57332;51.320;-0.580;2023-04-07T12:05:12;0.88;;;0.45;;
69991;SDS011;57332;51.320;-0.580;2023-04-07T12:07:39;0.82;;;0.50;;
69991;SDS011;57332;51.320;-0.580;2023-04-07T12:10:19;1.20;;;0.60;;
69991;SDS011;57332;51.320;-0.580;2023-04-07T12:12:46;1.52;;;0.50;;
69991;SDS011;57332;51.320;-0.580;2023-04-07T12:15:13;3.85;;;0.90;;
69991;SDS011;57332;51.320;-0.580;2023-04-07T12:17:45;1.33;;;0.50;;
69991;SDS011;57332;51.320;-0.580;2023-04-07T12:20:15;2.28;;;0.70;;
69991;SDS011;57332;51.320;-0.580;2023-04-07T12:22:42;2.60;;;0.50;;
69991;SDS011;57332;51.320;-0.580;2023-04-07T12:25:09;1.95;;;0.57;;
69991;SDS011;57332;51.320;-0.580;2023-04-07T12:27:36;3.13;;;0.82;;
69991;SDS011;57332;51.320;-0.580;2023-04-07T12:30:09;3.15;;;0.90;;
69991;SDS011;57332;51.320;-0.580;2023-04-07T12:32:36;2.72;;;0.65;;
69991;SDS011;57332;51.320;-0.580;2023-04-07T12:35:04;2.88;;;0.70;;
69991;SDS011;57332;51.320;-0.580;2023-04-07T12:37:31;1.85;;;0.60;;
69991;SDS011;57332;51.320;-0.580;2023-04-07T12:39:58;1.83;;;1.10;;
69991;SDS011;57332;51.320;-0.580;2023-04-07T12:42:26;1.80;;;0.70;;
69991;SDS011;57332;51.320;-0.580;2023-04-07T12:44:53;1.45;;;0.60;;
69991;SDS011;57332;51.320;-0.580;2023-04-07T12:47:20;2.05;;;0.70;;
69991;SDS011;57332;51.320;-0.580;2023-04-07T12:49:48;0.55;;;0.40;;
69991;SDS011;57332;51.320;-0.580;2023-04-07T12:52:15;1.00;;;0.50;;
69991;SDS011;57332;51.320;-0.580;2023-04-07T12:54:42;2.17;;;0.55;;
69991;SDS011;57332;51.320;-0.580;2023-04-07T12:57:11;1.15;;;0.50;;
69991;SDS011;57332;51.320;-0.580;2023-04-07T12:59:38;2.03;;;0.63;;
69991;SDS011;57332;51.320;-0.580;2023-04-07T13:02:05;0.85;;;0.50;;
69991;SDS011;57332;51.320;-0.580;2023-04-07T13:04:32;2.15;;;0.40;;
69991;SDS011;57332;51.320;-0.580;2023-04-07T13:07:01;1.50;;;0.60;;
69991;SDS011;57332;51.320;-0.580;2023-04-07T13:09:28;3.25;;;1.10;;
69991;SDS011;57332;51.320;-0.580;2023-04-07T13:11:55;1.35;;;0.60;;
69991;SDS011;57332;51.320;-0.580;2023-04-07T13:14:23;1.90;;;0.70;;
69991;SDS011;57332;51.320;-0.580;2023-04-07T13:16:51;1.52;;;0.75;;
69991;SDS011;57332;51.320;-0.580;2023-04-07T13:19:18;1.77;;;0.70;;
69991;SDS011;57332;51.320;-0.580;2023-04-07T13:21:45;1.48;;;0.60;;
69991;SDS011;57332;51.320;-0.580;2023-04-07T13:24:14;1.77;;;0.63;;
69991;SDS011;57332;51.320;-0.580;2023-04-07T13:26:41;2.50;;;0.60;;
69991;SDS011;57332;51.320;-0.580;2023-04-07T13:29:08;2.97;;;0.73;;
69991;SDS011;57332;51.320;-0.580;2023-04-07T13:31:35;3.92;;;0.70;;
69991;SDS011;57332;51.320;-0.580;2023-04-07T13:34:01;1.02;;;0.70;;
69991;SDS011;57332;51.320;-0.580;2023-04-07T13:36:28;2.17;;;0.65;;
69991;SDS011;57332;51.320;-0.580;2023-04-07T13:38:55;2.05;;;0.80;;
69991;SDS011;57332;51.320;-0.580;2023-04-07T13:41:23;2.63;;;0.77;;
69991;SDS011;57332;51.320;-0.580;2023-04-07T13:43:49;1.10;;;0.80;;
69991;SDS011;57332;51.320;-0.580;2023-04-07T13:46:17;2.15;;;0.60;;
69991;SDS011;57332;51.320;-0.580;2023-04-07T13:48:46;2.35;;;0.80;;
69991;SDS011;57332;51.320;-0.580;2023-04-07T13:51:15;1.50;;;0.80;;
69991;SDS011;57332;51.320;-0.580;2023-04-07T13:53:42;2.53;;;0.90;;
69991;SDS011;57332;51.320;-0.580;2023-04-07T13:56:08;1.42;;;0.52;;
69991;SDS011;57332;51.320;-0.580;2023-04-07T13:58:36;1.40;;;0.70;;
69991;SDS011;57332;51.320;-0.580;2023-04-07T14:01:03;1.70;;;0.50;;
69991;SDS011;57332;51.320;-0.580;2023-04-07T14:03:29;2.72;;;0.80;;
69991;SDS011;57332;51.320;-0.580;2023-04-07T14:05:57;0.80;;;0.60;;
69991;SDS011;57332;51.320;-0.580;2023-04-07T14:08:26;2.42;;;0.60;;
69991;SDS011;57332;51.320;-0.580;2023-04-07T14:10:53;1.77;;;0.70;;
69991;SDS011;57332;51.320;-0.580;2023-04-07T14:13:20;1.80;;;0.50;;
69991;SDS011;57332;51.320;-0.580;2023-04-07T14:15:48;1.73;;;0.70;;
69991;SDS011;57332;51.320;-0.580;2023-04-07T14:18:15;1.83;;;0.80;;
69991;SDS011;57332;51.320;-0.580;2023-04-07T14:20:43;3.05;;;0.80;;
69991;SDS011;57332;51.320;-0.580;2023-04-07T14:23:10;1.92;;;1.27;;
69991;SDS011;57332;51.320;-0.580;2023-04-07T14:25:37;1.45;;;0.70;;
69991;SDS011;57332;51.320;-0.580;2023-04-07T14:28:04;2.22;;;1.00;;
69991;SDS011;57332;51.320;-0.580;2023-04-07T14:30:30;1.30;;;0.65;;
69991;SDS011;57332;51.320;-0.580;2023-04-07T14:35:30;2.03;;;0.70;;
69991;SDS011;57332;51.320;-0.580;2023-04-07T14:37:57;1.13;;;0.60;;
69991;SDS011;57332;51.320;-0.580;2023-04-07T14:40:25;3.50;;;0.90;;
69991;SDS011;57332;51.320;-0.580;2023-04-07T14:42:51;1.17;;;0.73;;
69991;SDS011;57332;51.320;-0.580;2023-04-07T14:45:33;2.80;;;0.73;;
69991;SDS011;57332;51.320;-0.580;2023-04-07T14:48:01;1.52;;;0.60;;
69991;SDS011;57332;51.320;-0.580;2023-04-07T14:50:30;2.38;;;0.60;;
69991;SDS011;57332;51.320;-0.580;2023-04-07T14:52:57;3.13;;;0.65;;
69991;SDS011;57332;51.320;-0.580;2023-04-07T14:55:24;4.38;;;0.60;;
69991;SDS011;57332;51.320;-0.580;2023-04-07T14:57:51;1.50;;;0.50;;
69991;SDS011;57332;51.320;-0.580;2023-04-07T15:00:18;1.13;;;0.80;;